Time;durP1;ratioP1;P1;durP2;ratioP2;P2;SDS_P1;SDS_P2;PMS_P1;PMS_P2;Temp;Humidity;BMP_temperature;BMP_pressure;BME280_temperature;BME280_humidity;BME280_pressure;Samples;Min_cycle;Max_cycle;Signal;HPM_P1;HPM_P2
2021/07/09 00:01:54;;;;;;;;;;;22.40;69.20;;;;;;5024799;28;20286;-62
2021/07/09 00:04:20;;;;;;;;;;;22.40;69.40;;;;;;5022137;28;19921;-62
2021/07/09 00:06:45;;;;;;;;;;;22.40;69.10;;;;;;5040708;28;19927;-62
2021/07/09 00:09:11;;;;;;;;;;;22.40;69.10;;;;;;5037882;28;20325;-63
2021/07/09 00:11:38;;;;;;;;;;;22.40;69.40;;;;;;5023275;28;19932;-61
2021/07/09 00:14:04;;;;;;;;;;;22.40;69.50;;;;;;5026957;28;19920;-62
2021/07/09 00:16:30;;;;;;;;;;;22.40;69.50;;;;;;5021615;28;20023;-61
2021/07/09 00:18:59;;;;;;;;;;;22.40;69.50;;;;;;5040028;28;19991;-62
2021/07/09 00:21:24;;;;;;;;;;;22.40;69.50;;;;;;5038936;28;20000;-62
2021/07/09 00:23:50;;;;;;;;;;;22.40;69.40;;;;;;5020507;28;20015;-63
2021/07/09 00:26:15;;;;;;;;;;;22.40;69.60;;;;;;5038674;28;19985;-63
2021/07/09 00:28:41;;;;;;;;;;;22.40;69.30;;;;;;5040169;28;19970;-62
2021/07/09 00:31:06;;;;;;;;;;;22.40;69.20;;;;;;5038321;28;19925;-63
2021/07/09 00:33:32;;;;;;;;;;;22.40;69.10;;;;;;5020320;28;19917;-62
2021/07/09 00:35:57;;;;;;;;;;;22.40;69.40;;;;;;5040226;28;20381;-62
2021/07/09 00:38:23;;;;;;;;;;;22.40;69.60;;;;;;5020114;28;19921;-62
2021/07/09 00:40:48;;;;;;;;;;;22.40;69.50;;;;;;5020740;28;19927;-62
2021/07/09 00:43:14;;;;;;;;;;;22.40;69.50;;;;;;5018109;28;20369;-62
2021/07/09 00:45:39;;;;;;;;;;;22.40;69.50;;;;;;5039088;28;19920;-61
2021/07/09 00:48:05;;;;;;;;;;;22.40;69.60;;;;;;5037044;28;19959;-62
2021/07/09 00:50:30;;;;;;;;;;;22.40;69.40;;;;;;5025083;28;19974;-63
2021/07/09 00:52:56;;;;;;;;;;;22.40;69.60;;;;;;5022657;28;20377;-62
2021/07/09 00:55:21;;;;;;;;;;;22.40;69.60;;;;;;5038286;28;19916;-62
2021/07/09 00:57:49;;;;;;;;;;;22.40;69.60;;;;;;5037454;28;19974;-62
2021/07/09 01:00:16;;;;;;;;;;;22.40;69.30;;;;;;5045383;28;20441;-63
2021/07/09 01:02:41;;;;;;;;;;;22.30;69.30;;;;;;5043682;28;19925;-62
2021/07/09 01:05:07;;;;;;;;;;;22.30;68.90;;;;;;5040691;28;19974;-62
2021/07/09 01:07:33;;;;;;;;;;;22.40;69.30;;;;;;5039574;28;19921;-61
2021/07/09 01:09:58;;;;;;;;;;;22.40;69.80;;;;;;5019740;28;19928;-62
2021/07/09 01:12:24;;;;;;;;;;;22.40;69.30;;;;;;5047565;28;19927;-62
2021/07/09 01:14:49;;;;;;;;;;;22.40;69.40;;;;;;5022505;28;19974;-61
2021/07/09 01:17:14;;;;;;;;;;;22.40;69.30;;;;;;5042720;28;20278;-63
2021/07/09 01:19:40;;;;;;;;;;;22.30;69.30;;;;;;5038433;28;19917;-62
2021/07/09 01:22:09;;;;;;;;;;;22.40;69.50;;;;;;5040014;28;19947;-62
2021/07/09 01:24:37;;;;;;;;;;;22.40;69.50;;;;;;5017217;28;20344;-61
2021/07/09 01:27:02;;;;;;;;;;;22.30;69.10;;;;;;5020576;28;19921;-62
2021/07/09 01:29:28;;;;;;;;;;;22.30;69.40;;;;;;5019280;28;19921;-65
2021/07/09 01:31:53;;;;;;;;;;;22.40;69.50;;;;;;5024597;28;19921;-61
2021/07/09 01:34:19;;;;;;;;;;;22.40;69.50;;;;;;4976682;28;19971;-61
2021/07/09 01:36:44;;;;;;;;;;;22.40;69.50;;;;;;5004460;28;19921;-61
2021/07/09 01:39:10;;;;;;;;;;;22.40;69.50;;;;;;5023132;28;19927;-61
2021/07/09 01:41:35;;;;;;;;;;;22.30;69.50;;;;;;5023105;28;20382;-61
2021/07/09 01:44:02;;;;;;;;;;;22.30;69.60;;;;;;5019273;28;19921;-62
2021/07/09 01:46:27;;;;;;;;;;;22.40;69.70;;;;;;5019937;28;19921;-62
2021/07/09 01:48:53;;;;;;;;;;;22.40;69.60;;;;;;5018063;28;19978;-61
2021/07/09 01:51:18;;;;;;;;;;;22.30;69.60;;;;;;5035437;28;20357;-62
2021/07/09 01:53:44;;;;;;;;;;;22.30;69.70;;;;;;5039975;28;19925;-62
2021/07/09 01:56:09;;;;;;;;;;;22.40;69.80;;;;;;5036409;28;19924;-62
2021/07/09 01:58:35;;;;;;;;;;;22.30;69.70;;;;;;5037166;28;19921;-62
2021/07/09 02:01:00;;;;;;;;;;;22.30;69.80;;;;;;5041289;28;20325;-62
2021/07/09 02:03:25;;;;;;;;;;;22.30;69.80;;;;;;5035007;28;20416;-61
2021/07/09 02:05:51;;;;;;;;;;;22.30;69.60;;;;;;5053226;28;19932;-62
2021/07/09 02:08:16;;;;;;;;;;;22.30;69.70;;;;;;5040629;28;20303;-62
2021/07/09 02:10:42;;;;;;;;;;;22.40;69.70;;;;;;5039032;28;19924;-62
2021/07/09 02:13:08;;;;;;;;;;;22.30;70.30;;;;;;5023205;28;19925;-62
2021/07/09 02:15:37;;;;;;;;;;;22.30;69.70;;;;;;5024338;28;20418;-62
2021/07/09 02:18:03;;;;;;;;;;;22.30;69.70;;;;;;5023409;28;19931;-62
2021/07/09 02:20:28;;;;;;;;;;;22.30;69.70;;;;;;5020728;28;19916;-62
2021/07/09 02:22:57;;;;;;;;;;;22.30;69.70;;;;;;5038355;28;20347;-62
2021/07/09 02:25:22;;;;;;;;;;;22.30;69.70;;;;;;5023788;28;19956;-62
2021/07/09 02:27:48;;;;;;;;;;;22.30;69.60;;;;;;5017612;28;19947;-62
2021/07/09 02:30:16;;;;;;;;;;;22.30;69.60;;;;;;5019020;28;20147;-62
2021/07/09 02:32:41;;;;;;;;;;;22.40;69.60;;;;;;5015994;28;19925;-63
2021/07/09 02:35:07;;;;;;;;;;;22.30;69.60;;;;;;5044934;28;19931;-63
2021/07/09 02:37:32;;;;;;;;;;;22.30;69.70;;;;;;5019668;28;20374;-62
2021/07/09 02:39:58;;;;;;;;;;;22.30;69.60;;;;;;5012474;28;20007;-62
2021/07/09 02:42:23;;;;;;;;;;;22.30;69.50;;;;;;5023526;28;20012;-62
2021/07/09 02:44:49;;;;;;;;;;;22.30;69.40;;;;;;5034407;28;19963;-63
2021/07/09 02:47:14;;;;;;;;;;;22.30;69.30;;;;;;5044896;28;19925;-62
2021/07/09 02:49:40;;;;;;;;;;;22.30;68.90;;;;;;5018001;28;19921;-62
2021/07/09 02:52:06;;;;;;;;;;;22.30;69.20;;;;;;5022314;28;19928;-63
2021/07/09 02:54:31;;;;;;;;;;;22.30;68.90;;;;;;5020612;28;19917;-63
2021/07/09 02:56:56;;;;;;;;;;;22.30;69.30;;;;;;4999573;28;20506;-62
2021/07/09 02:59:22;;;;;;;;;;;22.30;69.00;;;;;;5024134;28;19928;-62
2021/07/09 03:01:47;;;;;;;;;;;22.30;69.30;;;;;;5022629;28;19917;-63
2021/07/09 03:04:13;;;;;;;;;;;22.30;69.00;;;;;;5016297;28;19925;-62
2021/07/09 03:06:38;;;;;;;;;;;22.30;69.00;;;;;;5014078;28;20393;-62
2021/07/09 03:09:04;;;;;;;;;;;22.30;69.30;;;;;;5006764;28;19963;-62
2021/07/09 03:11:30;;;;;;;;;;;22.30;69.30;;;;;;5024411;28;20283;-62
2021/07/09 03:13:55;;;;;;;;;;;22.30;69.40;;;;;;5016259;28;19917;-62
2021/07/09 03:16:20;;;;;;;;;;;22.30;69.30;;;;;;5000707;28;20023;-61
2021/07/09 03:18:46;;;;;;;;;;;22.30;69.50;;;;;;5024562;28;19926;-62
2021/07/09 03:21:12;;;;;;;;;;;22.30;69.50;;;;;;5019976;28;19925;-62
2021/07/09 03:23:38;;;;;;;;;;;22.30;69.70;;;;;;5016625;28;20015;-62
2021/07/09 03:26:03;;;;;;;;;;;22.30;69.70;;;;;;5018237;28;20382;-62
2021/07/09 03:28:31;;;;;;;;;;;22.30;69.70;;;;;;5020000;28;20945;-61
2021/07/09 03:30:56;;;;;;;;;;;22.30;69.70;;;;;;5034028;28;20526;-61
2021/07/09 03:33:21;;;;;;;;;;;22.30;69.70;;;;;;5038184;28;19986;-61
2021/07/09 03:35:47;;;;;;;;;;;22.30;69.70;;;;;;5002509;28;19925;-61
2021/07/09 03:38:12;;;;;;;;;;;22.30;69.80;;;;;;5015246;28;19928;-63
2021/07/09 03:40:38;;;;;;;;;;;22.30;69.80;;;;;;5017551;28;20769;-62
2021/07/09 03:43:03;;;;;;;;;;;22.30;69.70;;;;;;5022151;28;19917;-61
2021/07/09 03:45:29;;;;;;;;;;;22.30;69.70;;;;;;5017018;28;20003;-62
2021/07/09 03:47:56;;;;;;;;;;;22.20;69.70;;;;;;5021148;28;20598;-63
2021/07/09 03:50:22;;;;;;;;;;;22.30;69.60;;;;;;5022540;28;19936;-62
2021/07/09 03:52:48;;;;;;;;;;;22.30;69.60;;;;;;5016575;28;19920;-62
2021/07/09 03:55:13;;;;;;;;;;;22.30;69.60;;;;;;5039211;28;19951;-61
2021/07/09 03:57:39;;;;;;;;;;;22.30;69.50;;;;;;5019856;28;19921;-62
2021/07/09 04:00:05;;;;;;;;;;;22.20;69.00;;;;;;5025549;28;19931;-61
2021/07/09 04:02:30;;;;;;;;;;;22.20;69.10;;;;;;5027046;28;20158;-62
2021/07/09 04:04:56;;;;;;;;;;;22.20;69.50;;;;;;5028098;28;20459;-61
2021/07/09 04:07:21;;;;;;;;;;;22.20;69.60;;;;;;5022454;28;19924;-62
2021/07/09 04:09:47;;;;;;;;;;;22.20;69.60;;;;;;5019905;28;19924;-62
2021/07/09 04:12:12;;;;;;;;;;;22.20;69.30;;;;;;5040468;28;19942;-62
2021/07/09 04:14:37;;;;;;;;;;;22.20;69.50;;;;;;5036159;28;20777;-63
2021/07/09 04:17:03;;;;;;;;;;;22.20;69.50;;;;;;5041327;28;19925;-62
2021/07/09 04:19:28;;;;;;;;;;;22.20;69.50;;;;;;5022328;28;19966;-62
2021/07/09 04:21:54;;;;;;;;;;;22.20;69.60;;;;;;5049360;28;20394;-63
2021/07/09 04:24:19;;;;;;;;;;;22.20;69.40;;;;;;5000098;28;19926;-62
2021/07/09 04:26:45;;;;;;;;;;;22.20;69.60;;;;;;5027430;28;20044;-62
2021/07/09 04:29:10;;;;;;;;;;;22.20;69.60;;;;;;5038697;28;20189;-63
2021/07/09 04:31:35;;;;;;;;;;;22.20;70.30;;;;;;4998608;28;20378;-64
2021/07/09 04:34:01;;;;;;;;;;;22.20;69.60;;;;;;5025057;28;19928;-62
2021/07/09 04:36:26;;;;;;;;;;;22.20;69.50;;;;;;5026212;28;19947;-63
2021/07/09 04:38:52;;;;;;;;;;;22.10;69.30;;;;;;5009619;28;20566;-64
2021/07/09 04:41:17;;;;;;;;;;;22.10;69.60;;;;;;5010065;28;19917;-63
2021/07/09 04:43:43;;;;;;;;;;;22.20;69.80;;;;;;5020478;28;20396;-62
2021/07/09 04:46:08;;;;;;;;;;;22.20;69.70;;;;;;5027300;28;19929;-62
2021/07/09 04:48:34;;;;;;;;;;;22.20;70.10;;;;;;5024556;28;19921;-63
2021/07/09 04:51:01;;;;;;;;;;;22.20;71.10;;;;;;5027723;28;19925;-63
2021/07/09 04:53:27;;;;;;;;;;;22.20;71.10;;;;;;5026248;28;19956;-63
2021/07/09 04:55:52;;;;;;;;;;;22.20;71.70;;;;;;5006214;28;19979;-63
2021/07/09 04:58:18;;;;;;;;;;;22.20;71.40;;;;;;5004455;28;20420;-63
2021/07/09 05:00:43;;;;;;;;;;;22.20;71.80;;;;;;5023783;28;19960;-64
2021/07/09 05:03:09;;;;;;;;;;;22.20;71.20;;;;;;5020847;28;19921;-64
2021/07/09 05:05:34;;;;;;;;;;;22.20;71.80;;;;;;5017245;28;19921;-62
2021/07/09 05:08:00;;;;;;;;;;;22.20;71.70;;;;;;5021219;28;20479;-63
2021/07/09 05:10:25;;;;;;;;;;;22.20;71.60;;;;;;5031422;28;19921;-63
2021/07/09 05:12:50;;;;;;;;;;;22.20;71.30;;;;;;5010123;28;19921;-63
2021/07/09 05:15:16;;;;;;;;;;;22.20;71.50;;;;;;5018150;28;19921;-63
2021/07/09 05:17:41;;;;;;;;;;;22.20;71.20;;;;;;4990023;28;19951;-63
2021/07/09 05:20:07;;;;;;;;;;;22.20;71.20;;;;;;5004395;28;19917;-62
2021/07/09 05:22:32;;;;;;;;;;;22.10;70.60;;;;;;5016637;28;20015;-63
2021/07/09 05:24:58;;;;;;;;;;;22.10;70.70;;;;;;5025608;28;19913;-63
2021/07/09 05:27:24;;;;;;;;;;;22.20;71.00;;;;;;5033166;28;19924;-63
2021/07/09 05:29:49;;;;;;;;;;;22.10;71.10;;;;;;5035046;28;20038;-62
2021/07/09 05:32:20;;;;;;;;;;;22.10;71.10;;;;;;5019476;28;19917;-63
2021/07/09 05:34:46;;;;;;;;;;;22.20;70.80;;;;;;5018966;28;19924;-64
2021/07/09 05:37:11;;;;;;;;;;;22.20;71.00;;;;;;5016713;28;19917;-63
2021/07/09 05:39:36;;;;;;;;;;;22.20;70.90;;;;;;5029330;28;19917;-62
2021/07/09 05:42:02;;;;;;;;;;;22.20;70.70;;;;;;5032434;28;20400;-63
2021/07/09 05:44:27;;;;;;;;;;;22.20;71.00;;;;;;5017736;28;19984;-62
2021/07/09 05:46:53;;;;;;;;;;;22.20;71.10;;;;;;5016364;28;20199;-62
2021/07/09 05:49:18;;;;;;;;;;;22.10;70.70;;;;;;5034056;28;19917;-63
2021/07/09 05:51:44;;;;;;;;;;;22.10;70.80;;;;;;5029262;28;19920;-63
2021/07/09 05:54:09;;;;;;;;;;;22.10;70.90;;;;;;5020020;28;19948;-63
2021/07/09 05:56:35;;;;;;;;;;;22.20;71.40;;;;;;5007460;28;19921;-63
2021/07/09 05:59:01;;;;;;;;;;;22.20;70.90;;;;;;5004854;28;20375;-62
2021/07/09 06:01:27;;;;;;;;;;;22.20;70.80;;;;;;5025770;28;20412;-63
2021/07/09 06:03:53;;;;;;;;;;;22.20;70.60;;;;;;5037877;28;19913;-62
2021/07/09 06:06:18;;;;;;;;;;;22.20;70.60;;;;;;5038075;28;19913;-62
2021/07/09 06:08:44;;;;;;;;;;;22.20;70.80;;;;;;5024856;28;20718;-62
2021/07/09 06:11:10;;;;;;;;;;;22.10;70.50;;;;;;5045128;28;19923;-63
2021/07/09 06:13:35;;;;;;;;;;;22.10;70.40;;;;;;5036828;28;19917;-62
2021/07/09 06:16:00;;;;;;;;;;;22.10;70.40;;;;;;5037263;28;19917;-62
2021/07/09 06:18:26;;;;;;;;;;;22.20;70.50;;;;;;5010275;28;20399;-62
2021/07/09 06:20:51;;;;;;;;;;;22.20;70.30;;;;;;5049412;28;19970;-62
2021/07/09 06:23:17;;;;;;;;;;;22.20;70.30;;;;;;5048662;28;19960;-62
2021/07/09 06:25:42;;;;;;;;;;;22.10;70.00;;;;;;5051018;28;19912;-63
2021/07/09 06:28:08;;;;;;;;;;;22.10;70.40;;;;;;5035226;28;19913;-63
2021/07/09 06:30:33;;;;;;;;;;;22.10;70.40;;;;;;5018856;28;19920;-63
2021/07/09 06:32:59;;;;;;;;;;;22.10;70.50;;;;;;5036390;28;20437;-63
2021/07/09 06:35:29;;;;;;;;;;;22.10;70.10;;;;;;5056082;28;19919;-62
2021/07/09 06:37:58;;;;;;;;;;;22.10;70.30;;;;;;5056673;28;19919;-63
2021/07/09 06:40:24;;;;;;;;;;;22.10;70.30;;;;;;5038209;28;19920;-63
2021/07/09 06:42:50;;;;;;;;;;;22.10;70.00;;;;;;5056194;28;19917;-63
2021/07/09 06:45:15;;;;;;;;;;;22.10;70.40;;;;;;5037717;28;19923;-62
2021/07/09 06:47:41;;;;;;;;;;;22.10;70.50;;;;;;5029248;28;19912;-63
2021/07/09 06:50:06;;;;;;;;;;;22.10;70.40;;;;;;5056423;28;20316;-62
2021/07/09 06:52:32;;;;;;;;;;;22.10;70.40;;;;;;5054840;28;19970;-63
2021/07/09 06:54:58;;;;;;;;;;;22.10;70.30;;;;;;5037865;28;19970;-63
2021/07/09 06:57:24;;;;;;;;;;;22.10;70.40;;;;;;5031074;28;19923;-63
2021/07/09 06:59:49;;;;;;;;;;;22.10;70.20;;;;;;5023142;28;19916;-62
2021/07/09 07:02:14;;;;;;;;;;;22.00;70.70;;;;;;5055607;28;19917;-62
2021/07/09 07:04:40;;;;;;;;;;;21.90;71.00;;;;;;5026138;28;19920;-63
2021/07/09 07:07:06;;;;;;;;;;;21.90;70.90;;;;;;5027030;28;19917;-62
2021/07/09 07:09:32;;;;;;;;;;;22.00;70.80;;;;;;5035532;28;19956;-62
2021/07/09 07:12:01;;;;;;;;;;;22.00;70.70;;;;;;5052406;28;20408;-62
2021/07/09 07:14:27;;;;;;;;;;;22.00;70.60;;;;;;5048628;28;19917;-62
2021/07/09 07:16:53;;;;;;;;;;;22.10;70.50;;;;;;5050728;22;19925;-67
2021/07/09 07:19:18;;;;;;;;;;;22.10;70.30;;;;;;5023592;28;20387;-66
2021/07/09 07:21:44;;;;;;;;;;;22.10;70.40;;;;;;5024637;28;19913;-66
2021/07/09 07:24:09;;;;;;;;;;;22.10;70.50;;;;;;5024589;28;19921;-66
2021/07/09 07:26:35;;;;;;;;;;;22.10;70.60;;;;;;5020858;28;20007;-66
2021/07/09 07:29:00;;;;;;;;;;;22.10;70.80;;;;;;5008960;28;19924;-66
2021/07/09 07:31:26;;;;;;;;;;;22.10;70.60;;;;;;5015935;28;19970;-66
2021/07/09 07:33:51;;;;;;;;;;;22.00;70.80;;;;;;5012912;28;19921;-66
2021/07/09 07:36:17;;;;;;;;;;;22.10;70.60;;;;;;5015547;28;20399;-66
2021/07/09 07:38:43;;;;;;;;;;;22.10;70.70;;;;;;5007681;28;19920;-66
2021/07/09 07:41:08;;;;;;;;;;;22.10;70.80;;;;;;4996767;28;19963;-66
2021/07/09 07:43:34;;;;;;;;;;;22.10;70.40;;;;;;5014884;28;20348;-66
2021/07/09 07:45:59;;;;;;;;;;;22.00;70.70;;;;;;5014175;28;19937;-66
2021/07/09 07:48:25;;;;;;;;;;;22.00;70.60;;;;;;5013786;28;19917;-66
2021/07/09 07:50:50;;;;;;;;;;;22.00;70.70;;;;;;5009315;28;20332;-67
2021/07/09 07:53:16;;;;;;;;;;;22.00;70.70;;;;;;4996134;28;20024;-66
2021/07/09 07:55:41;;;;;;;;;;;22.10;70.60;;;;;;4988328;28;20399;-66
2021/07/09 07:58:07;;;;;;;;;;;22.10;70.60;;;;;;5023957;28;19913;-66
2021/07/09 08:00:32;;;;;;;;;;;22.00;70.50;;;;;;5006482;28;19913;-67
2021/07/09 08:02:58;;;;;;;;;;;22.00;70.50;;;;;;5012703;28;19917;-66
2021/07/09 08:05:25;;;;;;;;;;;22.00;70.70;;;;;;5005356;28;19964;-66
2021/07/09 08:07:51;;;;;;;;;;;22.00;70.40;;;;;;5009169;28;20008;-67
2021/07/09 08:10:16;;;;;;;;;;;22.00;70.60;;;;;;4994382;28;20000;-67
2021/07/09 08:12:42;;;;;;;;;;;22.00;70.70;;;;;;4989399;28;19914;-65
2021/07/09 08:15:08;;;;;;;;;;;22.00;70.80;;;;;;5012777;28;19979;-66
2021/07/09 08:17:33;;;;;;;;;;;22.00;70.80;;;;;;5003744;28;20407;-66
2021/07/09 08:19:58;;;;;;;;;;;22.00;70.70;;;;;;4999506;28;20542;-66
2021/07/09 08:22:24;;;;;;;;;;;22.00;70.70;;;;;;5004861;28;19913;-67
2021/07/09 08:24:49;;;;;;;;;;;22.00;70.70;;;;;;5011798;28;19918;-67
2021/07/09 08:27:15;;;;;;;;;;;22.00;70.70;;;;;;4998221;28;19921;-66
2021/07/09 08:29:40;;;;;;;;;;;22.00;70.60;;;;;;5014356;28;19932;-66
2021/07/09 08:32:06;;;;;;;;;;;22.00;70.60;;;;;;5004558;28;19913;-66
2021/07/09 08:34:31;;;;;;;;;;;22.00;70.50;;;;;;5006278;28;19921;-66
2021/07/09 08:36:57;;;;;;;;;;;22.00;70.50;;;;;;5016657;28;19922;-66
2021/07/09 08:39:22;;;;;;;;;;;22.00;70.40;;;;;;5006777;28;19921;-67
2021/07/09 08:41:48;;;;;;;;;;;22.00;70.40;;;;;;5021395;28;19921;-67
2021/07/09 08:44:13;;;;;;;;;;;22.00;70.50;;;;;;5003340;28;20560;-66
2021/07/09 08:46:39;;;;;;;;;;;22.00;70.50;;;;;;5011623;28;19918;-67
2021/07/09 08:49:04;;;;;;;;;;;22.10;70.40;;;;;;4997920;28;19925;-66
2021/07/09 08:51:30;;;;;;;;;;;22.00;70.40;;;;;;5014578;28;19921;-66
2021/07/09 08:53:55;;;;;;;;;;;22.00;70.30;;;;;;5012981;28;19920;-66
2021/07/09 08:56:21;;;;;;;;;;;22.00;70.20;;;;;;4999979;28;19917;-66
2021/07/09 08:58:46;;;;;;;;;;;22.00;70.00;;;;;;5011806;28;19917;-67
2021/07/09 09:01:12;;;;;;;;;;;22.00;70.10;;;;;;5010761;28;20487;-66
2021/07/09 09:03:37;;;;;;;;;;;22.00;70.10;;;;;;5010769;28;20016;-66
2021/07/09 09:06:03;;;;;;;;;;;22.00;70.20;;;;;;5017476;28;19918;-66
2021/07/09 09:08:29;;;;;;;;;;;22.00;70.20;;;;;;5021578;28;19913;-66
2021/07/09 09:10:55;;;;;;;;;;;22.00;70.20;;;;;;5011361;28;19925;-66
2021/07/09 09:13:24;;;;;;;;;;;22.00;70.20;;;;;;5018458;28;19956;-66
2021/07/09 09:16:06;;;;;;;;;;;22.00;70.20;;;;;;5011396;28;19924;-66
2021/07/09 09:18:35;;;;;;;;;;;22.00;70.20;;;;;;5013363;28;20380;-67
2021/07/09 09:21:05;;;;;;;;;;;22.00;70.20;;;;;;5024384;28;20424;-66
2021/07/09 09:23:30;;;;;;;;;;;22.00;70.10;;;;;;5018785;28;19913;-66
2021/07/09 09:25:56;;;;;;;;;;;22.00;70.20;;;;;;5014466;28;19921;-66
2021/07/09 09:28:21;;;;;;;;;;;22.00;70.20;;;;;;5002404;28;20411;-66
2021/07/09 09:30:51;;;;;;;;;;;22.00;70.10;;;;;;5007676;28;19924;-65
2021/07/09 09:33:16;;;;;;;;;;;22.00;70.20;;;;;;5004056;28;19914;-66
2021/07/09 09:35:43;;;;;;;;;;;22.00;70.20;;;;;;5016686;28;20646;-66
2021/07/09 09:38:12;;;;;;;;;;;22.00;70.20;;;;;;4999223;28;19920;-66
2021/07/09 09:40:38;;;;;;;;;;;22.00;70.20;;;;;;4997614;28;19949;-66
2021/07/09 09:43:11;;;;;;;;;;;22.00;70.20;;;;;;5012017;28;19953;-67
2021/07/09 09:45:37;;;;;;;;;;;22.00;70.80;;;;;;5003120;28;19913;-67
2021/07/09 09:48:03;;;;;;;;;;;22.00;70.30;;;;;;5020375;28;19920;-66
2021/07/09 09:50:28;;;;;;;;;;;22.00;70.20;;;;;;4980653;28;19959;-66
2021/07/09 09:52:55;;;;;;;;;;;22.00;70.20;;;;;;4996718;28;20356;-66
2021/07/09 09:55:21;;;;;;;;;;;22.00;70.10;;;;;;5015358;28;19944;-66
2021/07/09 09:57:47;;;;;;;;;;;22.00;70.20;;;;;;5021712;28;20305;-66
2021/07/09 10:00:21;;;;;;;;;;;22.00;70.20;;;;;;4973589;28;19918;-66
2021/07/09 10:02:48;;;;;;;;;;;22.00;70.30;;;;;;5014644;28;19952;-66
2021/07/09 10:05:13;;;;;;;;;;;22.00;70.30;;;;;;5005151;28;19971;-66
2021/07/09 10:07:39;;;;;;;;;;;22.00;70.30;;;;;;4992959;28;19922;-66
2021/07/09 10:10:04;;;;;;;;;;;22.00;70.20;;;;;;5016550;28;19917;-67
2021/07/09 10:12:30;;;;;;;;;;;21.90;70.30;;;;;;4997965;28;19980;-66
2021/07/09 10:14:55;;;;;;;;;;;22.00;70.30;;;;;;4994792;28;19921;-66
2021/07/09 10:17:21;;;;;;;;;;;22.00;70.20;;;;;;4992284;28;20442;-66
2021/07/09 10:19:47;;;;;;;;;;;22.00;70.20;;;;;;4991778;28;19998;-66
2021/07/09 10:22:13;;;;;;;;;;;22.00;70.20;;;;;;4992726;28;19913;-67
2021/07/09 10:24:42;;;;;;;;;;;22.00;70.50;;;;;;5010606;28;20500;-66
2021/07/09 10:27:07;;;;;;;;;;;22.00;70.50;;;;;;5011648;28;19940;-66
2021/07/09 10:29:35;;;;;;;;;;;22.00;70.50;;;;;;4989841;28;19917;-67
2021/07/09 10:32:01;;;;;;;;;;;22.00;70.30;;;;;;4981982;28;19948;-66
2021/07/09 10:34:47;;;;;;;;;;;21.90;70.40;;;;;;5006796;28;20403;-66
2021/07/09 10:37:19;;;;;;;;;;;22.00;70.40;;;;;;4997960;28;19951;-67
2021/07/09 10:39:45;;;;;;;;;;;22.00;70.40;;;;;;5013783;28;19949;-66
2021/07/09 10:42:15;;;;;;;;;;;21.90;70.30;;;;;;5007432;28;19917;-66
2021/07/09 10:44:59;;;;;;;;;;;22.00;70.40;;;;;;4987693;28;19916;-67
2021/07/09 10:47:37;;;;;;;;;;;22.00;70.30;;;;;;5015379;28;19921;-66
2021/07/09 10:50:03;;;;;;;;;;;22.00;70.50;;;;;;4984145;28;19921;-67
2021/07/09 10:52:41;;;;;;;;;;;22.00;70.50;;;;;;5004418;28;21272;-66
2021/07/09 10:55:25;;;;;;;;;;;21.90;70.50;;;;;;4993653;28;20344;-66
2021/07/09 10:58:05;;;;;;;;;;;22.00;70.60;;;;;;4989237;28;20327;-66
2021/07/09 11:00:40;;;;;;;;;;;22.00;70.60;;;;;;5017999;28;19917;-66
2021/07/09 11:03:07;;;;;;;;;;;22.00;70.70;;;;;;5015853;28;20273;-67
2021/07/09 11:05:51;;;;;;;;;;;22.00;71.30;;;;;;5011971;28;20561;-66
2021/07/09 11:08:35;;;;;;;;;;;22.00;70.70;;;;;;4968953;28;19937;-67
2021/07/09 11:11:01;;;;;;;;;;;22.00;70.80;;;;;;4997970;28;20389;-66
2021/07/09 11:13:42;;;;;;;;;;;22.00;70.70;;;;;;4986230;28;20000;-67
2021/07/09 11:16:17;;;;;;;;;;;22.00;70.70;;;;;;5002721;28;19913;-66
2021/07/09 11:18:49;;;;;;;;;;;22.00;70.70;;;;;;5005719;28;20469;-66
2021/07/09 11:21:26;;;;;;;;;;;22.00;70.70;;;;;;5012679;28;19921;-67
2021/07/09 11:23:52;;;;;;;;;;;22.00;70.70;;;;;;4998243;28;19959;-66
2021/07/09 11:26:18;;;;;;;;;;;22.00;70.70;;;;;;5009419;28;19921;-66
2021/07/09 11:28:44;;;;;;;;;;;22.00;70.70;;;;;;5001728;28;19917;-66
2021/07/09 11:31:09;;;;;;;;;;;22.00;70.80;;;;;;5012003;28;19917;-66
2021/07/09 11:33:35;;;;;;;;;;;22.00;70.70;;;;;;5000992;28;19976;-66
2021/07/09 11:36:15;;;;;;;;;;;22.00;70.70;;;;;;5011537;28;19922;-66
2021/07/09 11:39:00;;;;;;;;;;;22.00;70.70;;;;;;5007231;28;19918;-66
2021/07/09 11:41:26;;;;;;;;;;;22.00;70.70;;;;;;5003770;28;19940;-65
2021/07/09 11:43:51;;;;;;;;;;;22.00;70.60;;;;;;4975351;28;19913;-65
2021/07/09 11:46:17;;;;;;;;;;;22.00;70.30;;;;;;4993125;28;19914;-66
2021/07/09 11:48:42;;;;;;;;;;;22.00;70.30;;;;;;4985368;28;20372;-65
2021/07/09 11:51:08;;;;;;;;;;;22.00;70.30;;;;;;4988202;28;19964;-66
2021/07/09 11:53:33;;;;;;;;;;;22.00;70.40;;;;;;4994613;28;19914;-66
2021/07/09 11:56:12;;;;;;;;;;;22.00;70.30;;;;;;4983271;28;19920;-66
2021/07/09 11:58:37;;;;;;;;;;;22.00;70.30;;;;;;4984185;28;21837;-66
2021/07/09 12:01:03;;;;;;;;;;;22.00;70.20;;;;;;4979813;28;19913;-66
2021/07/09 12:03:28;;;;;;;;;;;22.00;70.10;;;;;;4979027;28;20434;-65
2021/07/09 12:05:54;;;;;;;;;;;22.00;70.10;;;;;;4979573;28;19914;-66
2021/07/09 12:08:19;;;;;;;;;;;22.00;70.00;;;;;;4975485;28;19914;-65
2021/07/09 12:10:44;;;;;;;;;;;22.00;70.00;;;;;;5001766;28;19917;-66
2021/07/09 12:13:10;;;;;;;;;;;22.00;70.00;;;;;;4985591;28;20526;-61
2021/07/09 12:15:36;;;;;;;;;;;22.00;70.00;;;;;;5004855;28;19968;-64
2021/07/09 12:18:05;;;;;;;;;;;22.00;70.00;;;;;;4993266;28;19932;-66
2021/07/09 12:20:31;;;;;;;;;;;22.00;70.00;;;;;;5003494;28;19925;-66
2021/07/09 12:23:03;;;;;;;;;;;21.90;69.70;;;;;;4992780;28;19924;-65
2021/07/09 12:25:35;;;;;;;;;;;22.00;69.80;;;;;;4996087;28;19914;-65
2021/07/09 12:28:01;;;;;;;;;;;22.00;69.70;;;;;;4970925;28;20449;-63
2021/07/09 12:30:28;;;;;;;;;;;22.00;69.60;;;;;;5031104;28;20303;-66
2021/07/09 12:32:54;;;;;;;;;;;22.00;69.40;;;;;;4986273;28;19997;-66
2021/07/09 12:35:19;;;;;;;;;;;21.90;69.50;;;;;;4991959;28;19996;-66
2021/07/09 12:37:54;;;;;;;;;;;22.00;69.50;;;;;;4998184;28;19924;-66
2021/07/09 12:40:20;;;;;;;;;;;21.90;69.50;;;;;;5003655;28;20008;-61
2021/07/09 12:42:47;;;;;;;;;;;21.90;69.50;;;;;;5008175;28;20320;-66
2021/07/09 12:45:13;;;;;;;;;;;21.90;69.50;;;;;;5012400;28;20416;-66
2021/07/09 12:47:48;;;;;;;;;;;21.90;69.40;;;;;;4973070;28;19964;-66
2021/07/09 12:50:13;;;;;;;;;;;21.90;69.40;;;;;;4987699;28;19975;-65
2021/07/09 12:52:39;;;;;;;;;;;21.90;69.30;;;;;;5004560;28;19917;-67
2021/07/09 12:55:04;;;;;;;;;;;21.90;68.90;;;;;;4988652;28;19925;-66
2021/07/09 12:57:30;;;;;;;;;;;21.90;69.00;;;;;;5016470;28;20039;-66
2021/07/09 12:59:56;;;;;;;;;;;22.00;69.10;;;;;;4982275;28;20272;-64
2021/07/09 13:02:23;;;;;;;;;;;21.90;69.00;;;;;;5017984;28;20173;-67
2021/07/09 13:04:49;;;;;;;;;;;21.90;68.80;;;;;;4998950;28;19992;-61
2021/07/09 13:07:15;;;;;;;;;;;21.90;68.40;;;;;;5011402;28;20388;-66
2021/07/09 13:09:43;;;;;;;;;;;21.90;68.90;;;;;;4984062;28;20329;-65
2021/07/09 13:12:12;;;;;;;;;;;21.90;68.80;;;;;;5019447;28;19914;-66
2021/07/09 13:14:46;;;;;;;;;;;21.90;68.90;;;;;;4990469;28;20351;-67
2021/07/09 13:17:14;;;;;;;;;;;21.90;68.90;;;;;;5023296;28;19928;-65
2021/07/09 13:19:40;;;;;;;;;;;21.90;68.90;;;;;;4989395;28;20020;-60
2021/07/09 13:22:06;;;;;;;;;;;21.90;68.90;;;;;;5006259;28;19917;-62
2021/07/09 13:24:32;;;;;;;;;;;21.90;68.80;;;;;;4978729;28;19955;-65
2021/07/09 13:26:58;;;;;;;;;;;21.90;69.50;;;;;;5016838;28;19917;-66
2021/07/09 13:29:25;;;;;;;;;;;21.90;68.30;;;;;;4980401;28;19921;-64
2021/07/09 13:31:54;;;;;;;;;;;21.90;68.70;;;;;;4995077;28;20330;-62
2021/07/09 13:34:20;;;;;;;;;;;21.90;68.70;;;;;;4991805;28;19920;-66
2021/07/09 13:36:45;;;;;;;;;;;21.90;68.60;;;;;;5014721;28;19913;-64
2021/07/09 13:39:11;;;;;;;;;;;21.90;68.60;;;;;;4991265;28;20423;-62
2021/07/09 13:41:36;;;;;;;;;;;21.90;68.60;;;;;;5022684;28;19920;-62
2021/07/09 13:44:02;;;;;;;;;;;21.90;68.60;;;;;;5010387;28;20616;-67
2021/07/09 13:46:27;;;;;;;;;;;21.90;68.50;;;;;;5017191;28;19921;-64
2021/07/09 13:48:53;;;;;;;;;;;21.90;68.50;;;;;;5001311;28;19917;-66
2021/07/09 13:51:18;;;;;;;;;;;21.90;68.20;;;;;;5001030;28;19921;-65
2021/07/09 13:53:46;;;;;;;;;;;21.90;68.40;;;;;;4982778;28;19963;-67
2021/07/09 13:56:12;;;;;;;;;;;21.80;68.40;;;;;;5007655;28;19913;-66
2021/07/09 13:58:38;;;;;;;;;;;21.80;68.40;;;;;;4997347;28;19948;-66
2021/07/09 14:01:03;;;;;;;;;;;21.90;68.10;;;;;;4996286;28;20269;-65
2021/07/09 14:03:29;;;;;;;;;;;21.80;68.20;;;;;;5009757;28;19948;-66
2021/07/09 14:05:54;;;;;;;;;;;21.80;67.30;;;;;;5016513;28;20338;-64
2021/07/09 14:08:21;;;;;;;;;;;21.80;67.80;;;;;;4995656;28;19914;-64
2021/07/09 14:10:49;;;;;;;;;;;21.80;68.00;;;;;;5009342;28;20437;-66
2021/07/09 14:13:14;;;;;;;;;;;21.90;68.70;;;;;;5013823;28;20451;-66